sensor_id;sensor_type;location;lat;lon;timestamp;pressure;altitude;pressure_sealevel;temperature;humidity
68793;BME280;55778;54.346;10.210;2023-04-26T00:00:36;100846.63;;;3.37;96.56
68793;BME280;55778;54.346;10.210;2023-04-26T00:03:06;100840.75;;;3.31;96.65
68793;BME280;55778;54.346;10.210;2023-04-26T00:05:31;100850.84;;;3.41;96.02
68793;BME280;55778;54.346;10.210;2023-04-26T00:07:57;100852.00;;;3.37;95.69
68793;BME280;55778;54.346;10.210;2023-04-26T00:10:22;100855.59;;;3.38;95.75
68793;BME280;55778;54.346;10.210;2023-04-26T00:12:48;100851.13;;;3.37;95.69
68793;BME280;55778;54.346;10.210;2023-04-26T00:15:13;100851.63;;;3.43;95.24
68793;BME280;55778;54.346;10.210;2023-04-26T00:17:38;100853.84;;;3.37;95.53
68793;BME280;55778;54.346;10.210;2023-04-26T00:20:04;100857.03;;;3.29;96.29
68793;BME280;55778;54.346;10.210;2023-04-26T00:22:33;100855.78;;;3.35;96.68
68793;BME280;55778;54.346;10.210;2023-04-26T00:24:58;100858.66;;;3.32;97.24
68793;BME280;55778;54.346;10.210;2023-04-26T00:27:23;100860.03;;;3.25;98.14
68793;BME280;55778;54.346;10.210;2023-04-26T00:29:49;100855.09;;;3.31;98.18
68793;BME280;55778;54.346;10.210;2023-04-26T00:32:14;100858.84;;;3.15;99.08
68793;BME280;55778;54.346;10.210;2023-04-26T00:34:40;100862.13;;;3.20;99.23
68793;BME280;55778;54.346;10.210;2023-04-26T00:37:05;100856.94;;;3.17;99.19
68793;BME280;55778;54.346;10.210;2023-04-26T00:39:31;100858.97;;;3.27;99.00
68793;BME280;55778;54.346;10.210;2023-04-26T00:41:57;100858.88;;;3.29;99.28
68793;BME280;55778;54.346;10.210;2023-04-26T00:44:22;100852.78;;;3.25;99.19
68793;BME280;55778;54.346;10.210;2023-04-26T00:46:49;100855.59;;;3.24;99.21
68793;BME280;55778;54.346;10.210;2023-04-26T00:49:18;100853.09;;;3.21;99.61
68793;BME280;55778;54.346;10.210;2023-04-26T00:51:44;100855.09;;;3.31;99.29
68793;BME280;55778;54.346;10.210;2023-04-26T00:54:09;100856.56;;;3.23;99.70
68793;BME280;55778;54.346;10.210;2023-04-26T00:56:36;100859.53;;;3.18;99.56
68793;BME280;55778;54.346;10.210;2023-04-26T00:59:02;100860.50;;;3.17;99.57
68793;BME280;55778;54.346;10.210;2023-04-26T01:01:28;100854.06;;;3.20;99.36
68793;BME280;55778;54.346;10.210;2023-04-26T01:03:54;100858.84;;;3.15;99.07
68793;BME280;55778;54.346;10.210;2023-04-26T01:06:19;100867.41;;;3.07;99.48
68793;BME280;55778;54.346;10.210;2023-04-26T01:08:45;100867.81;;;3.15;99.08
68793;BME280;55778;54.346;10.210;2023-04-26T01:11:11;100864.94;;;3.18;98.83
68793;BME280;55778;54.346;10.210;2023-04-26T01:13:37;100873.97;;;3.17;98.38
68793;BME280;55778;54.346;10.210;2023-04-26T01:16:02;100886.56;;;3.17;98.52
68793;BME280;55778;54.346;10.210;2023-04-26T01:18:28;100879.25;;;3.05;98.96
68793;BME280;55778;54.346;10.210;2023-04-26T01:20:54;100881.94;;;3.05;99.08
68793;BME280;55778;54.346;10.210;2023-04-26T01:23:21;100879.25;;;3.05;98.94
68793;BME280;55778;54.346;10.210;2023-04-26T01:25:49;100887.22;;;3.06;99.04
68793;BME280;55778;54.346;10.210;2023-04-26T01:28:15;100880.78;;;2.95;99.20
68793;BME280;55778;54.346;10.210;2023-04-26T01:30:40;100883.66;;;2.92;99.58
68793;BME280;55778;54.346;10.210;2023-04-26T01:33:06;100886.81;;;2.98;99.58
68793;BME280;55778;54.346;10.210;2023-04-26T01:35:31;100888.78;;;2.96;99.38
68793;BME280;55778;54.346;10.210;2023-04-26T01:37:57;100885.88;;;2.99;99.22
68793;BME280;55778;54.346;10.210;2023-04-26T01:40:23;100894.25;;;2.95;98.78
68793;BME280;55778;54.346;10.210;2023-04-26T01:42:48;100885.28;;;2.94;99.00
68793;BME280;55778;54.346;10.210;2023-04-26T01:45:13;100881.84;;;2.92;99.04
68793;BME280;55778;54.346;10.210;2023-04-26T01:47:39;100879.91;;;2.94;98.58
68793;BME280;55778;54.346;10.210;2023-04-26T01:50:05;100879.16;;;2.92;98.53
68793;BME280;55778;54.346;10.210;2023-04-26T01:52:31;100890.03;;;2.91;98.29
68793;BME280;55778;54.346;10.210;2023-04-26T01:54:56;100891.84;;;2.90;98.10
68793;BME280;55778;54.346;10.210;2023-04-26T01:57:22;100876.16;;;2.97;97.41
68793;BME280;55778;54.346;10.210;2023-04-26T01:59:47;100883.75;;;3.04;96.97
68793;BME280;55778;54.346;10.210;2023-04-26T02:02:12;100883.09;;;3.01;97.31
68793;BME280;55778;54.346;10.210;2023-04-26T02:04:38;100879.84;;;3.10;96.55
68793;BME280;55778;54.346;10.210;2023-04-26T02:07:03;100889.31;;;3.01;96.83
68793;BME280;55778;54.346;10.210;2023-04-26T02:09:28;100888.47;;;3.01;97.17
68793;BME280;55778;54.346;10.210;2023-04-26T02:11:54;100886.63;;;3.01;97.22
68793;BME280;55778;54.346;10.210;2023-04-26T02:14:19;100885.28;;;2.94;97.56
68793;BME280;55778;54.346;10.210;2023-04-26T02:16:44;100883.28;;;2.98;97.11
68793;BME280;55778;54.346;10.210;2023-04-26T02:19:10;100886.63;;;3.01;97.34
68793;BME280;55778;54.346;10.210;2023-04-26T02:21:55;100893.97;;;2.99;97.37
68793;BME280;55778;54.346;10.210;2023-04-26T02:24:22;100891.19;;;3.01;97.59
68793;BME280;55778;54.346;10.210;2023-04-26T02:26:48;100893.78;;;3.02;97.63
68793;BME280;55778;54.346;10.210;2023-04-26T02:29:13;100896.16;;;2.93;97.88
68793;BME280;55778;54.346;10.210;2023-04-26T02:31:39;100902.31;;;2.95;98.03
68793;BME280;55778;54.346;10.210;2023-04-26T02:34:04;100895.97;;;2.82;98.45
68793;BME280;55778;54.346;10.210;2023-04-26T02:36:30;100893.75;;;2.74;98.87
68793;BME280;55778;54.346;10.210;2023-04-26T02:38:57;100897.13;;;2.92;98.14
68793;BME280;55778;54.346;10.210;2023-04-26T02:41:23;100900.28;;;2.84;98.10
68793;BME280;55778;54.346;10.210;2023-04-26T02:43:49;100891.25;;;2.85;98.50
68793;BME280;55778;54.346;10.210;2023-04-26T02:46:14;100889.72;;;2.81;98.58
68793;BME280;55778;54.346;10.210;2023-04-26T02:48:39;100900.56;;;2.80;98.62
68793;BME280;55778;54.346;10.210;2023-04-26T02:51:05;100901.16;;;2.85;98.39
68793;BME280;55778;54.346;10.210;2023-04-26T02:53:30;100904.88;;;2.82;98.53
68793;BME280;55778;54.346;10.210;2023-04-26T02:55:56;100906.63;;;2.83;98.43
68793;BME280;55778;54.346;10.210;2023-04-26T02:58:21;100896.63;;;2.85;98.50
68793;BME280;55778;54.346;10.210;2023-04-26T03:00:46;100910.44;;;2.79;98.65
68793;BME280;55778;54.346;10.210;2023-04-26T03:03:13;100909.00;;;2.74;98.94
68793;BME280;55778;54.346;10.210;2023-04-26T03:05:38;100899.03;;;2.76;99.07
68793;BME280;55778;54.346;10.210;2023-04-26T03:08:04;100895.69;;;2.86;98.95
68793;BME280;55778;54.346;10.210;2023-04-26T03:10:30;100900.19;;;2.86;98.76
68793;BME280;55778;54.346;10.210;2023-04-26T03:12:55;100897.00;;;2.79;99.09
68793;BME280;55778;54.346;10.210;2023-04-26T03:15:21;100908.53;;;2.81;99.23
68793;BME280;55778;54.346;10.210;2023-04-26T03:17:46;100902.47;;;2.78;99.48
68793;BME280;55778;54.346;10.210;2023-04-26T03:20:11;100899.41;;;2.84;99.24
68793;BME280;55778;54.346;10.210;2023-04-26T03:22:38;100901.22;;;2.69;99.83
68793;BME280;55778;54.346;10.210;2023-04-26T03:25:03;100907.94;;;2.76;99.80
68793;BME280;55778;54.346;10.210;2023-04-26T03:27:29;100894.97;;;2.69;99.94
68793;BME280;55778;54.346;10.210;2023-04-26T03:29:55;100897.66;;;2.69;99.73
68793;BME280;55778;54.346;10.210;2023-04-26T03:32:20;100902.75;;;2.59;100.00
68793;BME280;55778;54.346;10.210;2023-04-26T03:34:45;100901.81;;;2.74;99.76
68793;BME280;55778;54.346;10.210;2023-04-26T03:37:13;100904.41;;;2.76;99.59
68793;BME280;55778;54.346;10.210;2023-04-26T03:39:38;100900.06;;;2.73;99.45
68793;BME280;55778;54.346;10.210;2023-04-26T03:42:04;100896.44;;;2.74;99.53
68793;BME280;55778;54.346;10.210;2023-04-26T03:44:29;100895.56;;;2.74;99.69
68793;BME280;55778;54.346;10.210;2023-04-26T03:46:54;100899.50;;;2.68;99.66
68793;BME280;55778;54.346;10.210;2023-04-26T03:49:20;100905.16;;;2.64;100.00
68793;BME280;55778;54.346;10.210;2023-04-26T03:51:46;100902.56;;;2.76;100.00
68793;BME280;55778;54.346;10.210;2023-04-26T03:54:11;100898.94;;;2.77;100.00
68793;BME280;55778;54.346;10.210;2023-04-26T03:56:37;100897.97;;;2.78;100.00
68793;BME280;55778;54.346;10.210;2023-04-26T03:59:03;100912.75;;;2.71;99.77
68793;BME280;55778;54.346;10.210;2023-04-26T04:01:28;100909.59;;;2.79;99.51
68793;BME280;55778;54.346;10.210;2023-04-26T04:03:54;100913.31;;;2.76;99.51
68793;BME280;55778;54.346;10.210;2023-04-26T04:06:19;100909.97;;;2.73;99.38
68793;BME280;55778;54.346;10.210;2023-04-26T04:08:44;100904.78;;;2.70;99.48
68793;BME280;55778;54.346;10.210;2023-04-26T04:11:10;100907.47;;;2.70;99.56
68793;BME280;55778;54.346;10.210;2023-04-26T04:13:35;100910.16;;;2.70;99.68
68793;BME280;55778;54.346;10.210;2023-04-26T04:16:01;100911.09;;;2.69;99.86
68793;BME280;55778;54.346;10.210;2023-04-26T04:18:26;100915.84;;;2.79;99.70
68793;BME280;55778;54.346;10.210;2023-04-26T04:20:51;100915.00;;;2.79;99.63
68793;BME280;55778;54.346;10.210;2023-04-26T04:23:17;100920.56;;;2.76;99.96
68793;BME280;55778;54.346;10.210;2023-04-26T04:25:42;100911.97;;;2.69;100.00
68793;BME280;55778;54.346;10.210;2023-04-26T04:28:09;100909.88;;;2.74;99.95
68793;BME280;55778;54.346;10.210;2023-04-26T04:30:36;100907.47;;;2.84;99.39
68793;BME280;55778;54.346;10.210;2023-04-26T04:33:01;100912.41;;;2.77;99.57
68793;BME280;55778;54.346;10.210;2023-04-26T04:35:29;100912.31;;;2.93;98.91
68793;BME280;55778;54.346;10.210;2023-04-26T04:37:57;100915.88;;;2.93;98.55
68793;BME280;55778;54.346;10.210;2023-04-26T04:40:23;100913.09;;;2.95;98.02
68793;BME280;55778;54.346;10.210;2023-04-26T04:42:49;100913.56;;;3.01;97.99
68793;BME280;55778;54.346;10.210;2023-04-26T04:45:15;100915.13;;;3.05;97.71
68793;BME280;55778;54.346;10.210;2023-04-26T04:47:42;100917.63;;;3.08;97.03
68793;BME280;55778;54.346;10.210;2023-04-26T04:50:07;100913.69;;;3.14;96.69
68793;BME280;55778;54.346;10.210;2023-04-26T04:52:33;100922.91;;;3.10;96.64
68793;BME280;55778;54.346;10.210;2023-04-26T04:54:59;100922.16;;;3.22;96.08
68793;BME280;55778;54.346;10.210;2023-04-26T04:57:25;100919.63;;;3.33;95.15
68793;BME280;55778;54.346;10.210;2023-04-26T04:59:51;100928.00;;;3.28;95.25
68793;BME280;55778;54.346;10.210;2023-04-26T05:02:17;100923.97;;;3.35;95.36
68793;BME280;55778;54.346;10.210;2023-04-26T05:04:43;100926.66;;;3.35;94.44
68793;BME280;55778;54.346;10.210;2023-04-26T05:07:08;100925.13;;;3.45;93.55
68793;BME280;55778;54.346;10.210;2023-04-26T05:09:34;100933.41;;;3.42;93.44
68793;BME280;55778;54.346;10.210;2023-04-26T05:11:59;100924.75;;;3.51;93.47
68793;BME280;55778;54.346;10.210;2023-04-26T05:14:25;100924.53;;;3.54;93.18
68793;BME280;55778;54.346;10.210;2023-04-26T05:16:51;100926.75;;;3.62;93.11
68793;BME280;55778;54.346;10.210;2023-04-26T05:19:16;100924.81;;;3.64;92.56
68793;BME280;55778;54.346;10.210;2023-04-26T05:21:41;100930.69;;;3.70;92.06
68793;BME280;55778;54.346;10.210;2023-04-26T05:24:07;100929.50;;;3.74;91.79
68793;BME280;55778;54.346;10.210;2023-04-26T05:26:34;100931.50;;;3.85;90.76
68793;BME280;55778;54.346;10.210;2023-04-26T05:28:59;100929.31;;;3.91;90.15
68793;BME280;55778;54.346;10.210;2023-04-26T05:31:25;100923.41;;;3.99;89.20
68793;BME280;55778;54.346;10.210;2023-04-26T05:33:51;100938.94;;;4.08;89.10
68793;BME280;55778;54.346;10.210;2023-04-26T05:36:17;100938.84;;;4.09;88.78
68793;BME280;55778;54.346;10.210;2023-04-26T05:38:42;100936.53;;;4.18;88.26
68793;BME280;55778;54.346;10.210;2023-04-26T05:41:07;100936.03;;;4.25;87.36
68793;BME280;55778;54.346;10.210;2023-04-26T05:43:33;100945.53;;;4.31;86.79
68793;BME280;55778;54.346;10.210;2023-04-26T05:45:58;100945.78;;;4.40;86.55
68793;BME280;55778;54.346;10.210;2023-04-26T05:48:24;100945.44;;;4.32;86.43
68793;BME280;55778;54.346;10.210;2023-04-26T05:50:50;100943.00;;;4.42;86.23
68793;BME280;55778;54.346;10.210;2023-04-26T05:53:17;100954.31;;;4.47;86.10
68793;BME280;55778;54.346;10.210;2023-04-26T05:55:43;100941.19;;;4.55;85.68
68793;BME280;55778;54.346;10.210;2023-04-26T05:58:09;100941.19;;;4.55;85.80
68793;BME280;55778;54.346;10.210;2023-04-26T06:00:35;100934.50;;;4.60;85.14
68793;BME280;55778;54.346;10.210;2023-04-26T06:03:01;100940.16;;;4.70;84.19
68793;BME280;55778;54.346;10.210;2023-04-26T06:05:26;100943.63;;;4.72;83.34
68793;BME280;55778;54.346;10.210;2023-04-26T06:07:52;100943.84;;;4.81;83.69
68793;BME280;55778;54.346;10.210;2023-04-26T06:10:18;100942.34;;;4.77;83.10
68793;BME280;55778;54.346;10.210;2023-04-26T06:12:43;100959.06;;;4.82;82.90
68793;BME280;55778;54.346;10.210;2023-04-26T06:15:09;100949.28;;;4.94;83.35
68793;BME280;55778;54.346;10.210;2023-04-26T06:17:35;100948.31;;;4.95;82.56
68793;BME280;55778;54.346;10.210;2023-04-26T06:20:00;100949.06;;;5.09;82.87
68793;BME280;55778;54.346;10.210;2023-04-26T06:22:26;100943.56;;;5.11;82.32
68793;BME280;55778;54.346;10.210;2023-04-26T06:24:51;100948.13;;;5.23;81.35
68793;BME280;55778;54.346;10.210;2023-04-26T06:27:16;100947.78;;;5.27;81.37
68793;BME280;55778;54.346;10.210;2023-04-26T06:29:42;100952.44;;;5.25;81.45
68793;BME280;55778;54.346;10.210;2023-04-26T06:32:08;100953.41;;;5.24;80.11
68793;BME280;55778;54.346;10.210;2023-04-26T06:34:33;100956.31;;;5.59;80.24
68793;BME280;55778;54.346;10.210;2023-04-26T06:36:59;100958.91;;;5.85;78.90
68793;BME280;55778;54.346;10.210;2023-04-26T06:39:25;100950.56;;;5.88;78.92
68793;BME280;55778;54.346;10.210;2023-04-26T06:41:50;100964.06;;;6.01;78.57
68793;BME280;55778;54.346;10.210;2023-04-26T06:44:16;100959.06;;;6.07;77.82
68793;BME280;55778;54.346;10.210;2023-04-26T06:46:41;100969.00;;;6.20;77.02
68793;BME280;55778;54.346;10.210;2023-04-26T06:49:06;100971.00;;;6.05;77.81
68793;BME280;55778;54.346;10.210;2023-04-26T06:51:32;100965.84;;;6.26;76.71
68793;BME280;55778;54.346;10.210;2023-04-26T06:53:57;100961.88;;;6.19;75.83
68793;BME280;55778;54.346;10.210;2023-04-26T06:56:25;100964.25;;;6.10;75.98
68793;BME280;55778;54.346;10.210;2023-04-26T06:59:01;100965.75;;;6.14;74.05
68793;BME280;55778;54.346;10.210;2023-04-26T07:01:28;100968.78;;;6.23;73.41
68793;BME280;55778;54.346;10.210;2023-04-26T07:03:56;100961.13;;;6.40;73.98
68793;BME280;55778;54.346;10.210;2023-04-26T07:06:23;100965.72;;;6.74;72.39
68793;BME280;55778;54.346;10.210;2023-04-26T07:08:48;100965.13;;;6.82;72.55
68793;BME280;55778;54.346;10.210;2023-04-26T07:11:14;100966.16;;;6.92;70.78
68793;BME280;55778;54.346;10.210;2023-04-26T07:13:39;100973.28;;;6.35;72.61
68793;BME280;55778;54.346;10.210;2023-04-26T07:16:05;100969.00;;;6.43;71.29
68793;BME280;55778;54.346;10.210;2023-04-26T07:18:30;100967.53;;;6.39;71.72
68793;BME280;55778;54.346;10.210;2023-04-26T07:20:56;100971.16;;;6.51;71.83
68793;BME280;55778;54.346;10.210;2023-04-26T07:23:21;100974.94;;;6.72;71.28
68793;BME280;55778;54.346;10.210;2023-04-26T07:25:47;100966.81;;;6.72;71.98
68793;BME280;55778;54.346;10.210;2023-04-26T07:28:12;100964.38;;;6.80;70.61
68793;BME280;55778;54.346;10.210;2023-04-26T07:30:37;100968.44;;;7.09;70.94
68793;BME280;55778;54.346;10.210;2023-04-26T07:33:03;100976.38;;;6.88;71.04
68793;BME280;55778;54.346;10.210;2023-04-26T07:35:28;100972.81;;;6.64;71.55
68793;BME280;55778;54.346;10.210;2023-04-26T07:37:54;100975.13;;;6.58;69.89
68793;BME280;55778;54.346;10.210;2023-04-26T07:40:19;100976.25;;;6.90;69.92
68793;BME280;55778;54.346;10.210;2023-04-26T07:42:46;100975.28;;;6.67;69.69
68793;BME280;55778;54.346;10.210;2023-04-26T07:45:12;100975.22;;;6.56;68.85
68793;BME280;55778;54.346;10.210;2023-04-26T07:47:37;100981.97;;;6.51;68.45
68793;BME280;55778;54.346;10.210;2023-04-26T07:50:03;100982.38;;;6.81;68.15
68793;BME280;55778;54.346;10.210;2023-04-26T07:52:29;100987.09;;;6.90;67.67
68793;BME280;55778;54.346;10.210;2023-04-26T07:54:54;100985.81;;;6.83;67.84
68793;BME280;55778;54.346;10.210;2023-04-26T07:57:19;100988.94;;;7.00;67.17
68793;BME280;55778;54.346;10.210;2023-04-26T07:59:45;100980.72;;;7.02;66.01
68793;BME280;55778;54.346;10.210;2023-04-26T08:02:10;100985.53;;;6.98;66.32
68793;BME280;55778;54.346;10.210;2023-04-26T08:04:36;100982.88;;;6.86;64.97
68793;BME280;55778;54.346;10.210;2023-04-26T08:07:01;100997.53;;;6.83;65.14
68793;BME280;55778;54.346;10.210;2023-04-26T08:09:29;100994.38;;;7.00;64.92
68793;BME280;55778;54.346;10.210;2023-04-26T08:11:55;101001.56;;;6.78;65.07
68793;BME280;55778;54.346;10.210;2023-04-26T08:14:21;100994.06;;;7.16;63.17
68793;BME280;55778;54.346;10.210;2023-04-26T08:16:49;101002.28;;;7.49;62.21
68793;BME280;55778;54.346;10.210;2023-04-26T08:19:15;100989.50;;;7.62;61.87
68793;BME280;55778;54.346;10.210;2023-04-26T08:21:41;100987.88;;;7.92;61.46
68793;BME280;55778;54.346;10.210;2023-04-26T08:24:06;100988.50;;;7.85;60.48
68793;BME280;55778;54.346;10.210;2023-04-26T08:26:32;100986.03;;;7.60;62.01
68793;BME280;55778;54.346;10.210;2023-04-26T08:28:57;100996.63;;;7.52;62.99
68793;BME280;55778;54.346;10.210;2023-04-26T08:31:22;100997.94;;;7.35;63.21
68793;BME280;55778;54.346;10.210;2023-04-26T08:33:48;101011.41;;;6.79;62.14
68793;BME280;55778;54.346;10.210;2023-04-26T08:36:13;101018.28;;;6.48;63.90
68793;BME280;55778;54.346;10.210;2023-04-26T08:38:39;101024.59;;;7.07;64.04
68793;BME280;55778;54.346;10.210;2023-04-26T08:41:05;101011.97;;;7.29;62.31
68793;BME280;55778;54.346;10.210;2023-04-26T08:43:35;101010.69;;;7.68;59.90
68793;BME280;55778;54.346;10.210;2023-04-26T08:46:02;101000.38;;;7.95;59.34
68793;BME280;55778;54.346;10.210;2023-04-26T08:48:33;101000.72;;;8.01;58.18
68793;BME280;55778;54.346;10.210;2023-04-26T08:51:00;100987.50;;;8.19;58.12
68793;BME280;55778;54.346;10.210;2023-04-26T08:53:26;101012.78;;;7.53;56.69
68793;BME280;55778;54.346;10.210;2023-04-26T08:55:53;101008.56;;;7.38;57.90
68793;BME280;55778;54.346;10.210;2023-04-26T08:58:19;100998.88;;;7.80;58.21
68793;BME280;55778;54.346;10.210;2023-04-26T09:00:45;100999.34;;;8.07;56.63
68793;BME280;55778;54.346;10.210;2023-04-26T09:03:10;101001.44;;;8.14;56.21
68793;BME280;55778;54.346;10.210;2023-04-26T09:05:39;101001.81;;;8.43;56.11
68793;BME280;55778;54.346;10.210;2023-04-26T09:08:05;101004.41;;;8.45;54.96
68793;BME280;55778;54.346;10.210;2023-04-26T09:10:31;101001.34;;;8.81;53.72
68793;BME280;55778;54.346;10.210;2023-04-26T09:12:57;101004.19;;;8.79;54.34
68793;BME280;55778;54.346;10.210;2023-04-26T09:15:24;101002.75;;;8.64;55.34
68793;BME280;55778;54.346;10.210;2023-04-26T09:17:51;101002.06;;;8.83;55.42
68793;BME280;55778;54.346;10.210;2023-04-26T09:22:42;101007.25;;;8.43;56.75
68793;BME280;55778;54.346;10.210;2023-04-26T09:25:08;101004.06;;;8.05;56.29
68793;BME280;55778;54.346;10.210;2023-04-26T09:27:38;101015.84;;;8.59;57.64
68793;BME280;55778;54.346;10.210;2023-04-26T09:30:16;101011.53;;;8.99;56.92
68793;BME280;55778;54.346;10.210;2023-04-26T09:32:59;101007.59;;;9.44;56.15
68793;BME280;55778;54.346;10.210;2023-04-26T09:37:59;101009.97;;;9.38;56.33
68793;BME280;55778;54.346;10.210;2023-04-26T09:40:28;101013.22;;;9.32;57.34
68793;BME280;55778;54.346;10.210;2023-04-26T09:43:02;101014.75;;;8.93;58.86
68793;BME280;55778;54.346;10.210;2023-04-26T09:45:30;101010.97;;;8.85;59.05
68793;BME280;55778;54.346;10.210;2023-04-26T09:48:18;101018.72;;;8.47;60.79
68793;BME280;55778;54.346;10.210;2023-04-26T09:50:46;101020.09;;;7.97;63.99
68793;BME280;55778;54.346;10.210;2023-04-26T09:53:39;101028.28;;;7.51;67.28
68793;BME280;55778;54.346;10.210;2023-04-26T09:56:07;101061.19;;;6.65;72.25
68793;BME280;55778;54.346;10.210;2023-04-26T09:58:35;101070.91;;;4.92;83.95
68793;BME280;55778;54.346;10.210;2023-04-26T10:01:02;101082.00;;;4.47;91.73
68793;BME280;55778;54.346;10.210;2023-04-26T10:03:28;101088.88;;;4.25;96.31
68793;BME280;55778;54.346;10.210;2023-04-26T10:05:53;101090.44;;;4.14;98.22
68793;BME280;55778;54.346;10.210;2023-04-26T10:08:19;101093.59;;;4.35;100.00
68793;BME280;55778;54.346;10.210;2023-04-26T10:10:44;101088.44;;;4.59;97.57
68793;BME280;55778;54.346;10.210;2023-04-26T10:13:12;101098.66;;;4.94;97.50
68793;BME280;55778;54.346;10.210;2023-04-26T10:15:40;101084.63;;;5.41;95.87
68793;BME280;55778;54.346;10.210;2023-04-26T10:18:06;101075.38;;;5.95;92.94
68793;BME280;55778;54.346;10.210;2023-04-26T10:20:31;101070.53;;;6.85;90.43
68793;BME280;55778;54.346;10.210;2023-04-26T10:22:58;101062.31;;;7.44;86.29
68793;BME280;55778;54.346;10.210;2023-04-26T10:25:35;101058.59;;;7.11;77.90
68793;BME280;55778;54.346;10.210;2023-04-26T10:28:01;101059.41;;;7.24;74.98
68793;BME280;55778;54.346;10.210;2023-04-26T10:30:28;101042.53;;;7.77;73.10
68793;BME280;55778;54.346;10.210;2023-04-26T10:35:28;101041.91;;;9.04;69.52
68793;BME280;55778;54.346;10.210;2023-04-26T10:40:37;101027.09;;;10.70;59.08
68793;BME280;55778;54.346;10.210;2023-04-26T10:45:42;101037.78;;;9.62;60.99
68793;BME280;55778;54.346;10.210;2023-04-26T10:53:33;101060.06;;;7.38;77.69
68793;BME280;55778;54.346;10.210;2023-04-26T10:58:48;101060.56;;;7.89;74.36
68793;BME280;55778;54.346;10.210;2023-04-26T11:01:31;101059.94;;;8.07;69.71
68793;BME280;55778;54.346;10.210;2023-04-26T11:06:22;101055.34;;;7.75;66.37
68793;BME280;55778;54.346;10.210;2023-04-26T11:08:47;101048.44;;;7.71;63.43
68793;BME280;55778;54.346;10.210;2023-04-26T11:11:15;101041.06;;;8.06;63.90
68793;BME280;55778;54.346;10.210;2023-04-26T11:13:42;101045.38;;;8.08;60.38
68793;BME280;55778;54.346;10.210;2023-04-26T11:16:14;101044.69;;;8.40;59.74
68793;BME280;55778;54.346;10.210;2023-04-26T11:18:42;101046.63;;;9.23;59.06
68793;BME280;55778;54.346;10.210;2023-04-26T11:21:08;101036.50;;;8.93;58.40
68793;BME280;55778;54.346;10.210;2023-04-26T11:23:34;101045.28;;;8.86;60.10
68793;BME280;55778;54.346;10.210;2023-04-26T11:26:09;101053.81;;;8.28;60.35
68793;BME280;55778;54.346;10.210;2023-04-26T11:28:36;101084.13;;;7.54;67.66
68793;BME280;55778;54.346;10.210;2023-04-26T11:31:02;101077.78;;;6.84;74.32
68793;BME280;55778;54.346;10.210;2023-04-26T11:33:28;101096.28;;;6.67;76.58
68793;BME280;55778;54.346;10.210;2023-04-26T11:35:56;101098.16;;;6.54;77.28
68793;BME280;55778;54.346;10.210;2023-04-26T11:38:23;101111.88;;;6.02;79.12
68793;BME280;55778;54.346;10.210;2023-04-26T11:41:04;101103.22;;;6.09;80.12
68793;BME280;55778;54.346;10.210;2023-04-26T11:43:34;101092.41;;;6.09;78.96
68793;BME280;55778;54.346;10.210;2023-04-26T11:46:01;101088.56;;;6.37;77.64
68793;BME280;55778;54.346;10.210;2023-04-26T11:48:27;101087.03;;;6.69;74.58
68793;BME280;55778;54.346;10.210;2023-04-26T11:50:56;101073.69;;;7.26;73.15
68793;BME280;55778;54.346;10.210;2023-04-26T11:53:23;101062.47;;;7.76;67.29
68793;BME280;55778;54.346;10.210;2023-04-26T11:55:48;101066.72;;;8.13;64.66
68793;BME280;55778;54.346;10.210;2023-04-26T11:58:15;101062.69;;;8.30;62.23
68793;BME280;55778;54.346;10.210;2023-04-26T12:01:00;101066.78;;;8.35;61.15
68793;BME280;55778;54.346;10.210;2023-04-26T12:03:30;101062.28;;;8.56;59.90
68793;BME280;55778;54.346;10.210;2023-04-26T12:05:56;101069.25;;;8.92;59.70
68793;BME280;55778;54.346;10.210;2023-04-26T12:08:25;101066.88;;;9.09;60.56
68793;BME280;55778;54.346;10.210;2023-04-26T12:10:51;101064.28;;;8.97;60.23
68793;BME280;55778;54.346;10.210;2023-04-26T12:13:18;101072.91;;;9.33;58.36
68793;BME280;55778;54.346;10.210;2023-04-26T12:15:44;101064.69;;;8.81;59.48
68793;BME280;55778;54.346;10.210;2023-04-26T12:18:10;101078.63;;;9.30;60.75
68793;BME280;55778;54.346;10.210;2023-04-26T12:20:40;101077.78;;;8.87;61.49
68793;BME280;55778;54.346;10.210;2023-04-26T12:23:08;101069.06;;;9.15;61.61
68793;BME280;55778;54.346;10.210;2023-04-26T12:25:39;101069.91;;;9.47;58.93
68793;BME280;55778;54.346;10.210;2023-04-26T12:28:08;101068.66;;;9.20;55.13
68793;BME280;55778;54.346;10.210;2023-04-26T12:30:37;101075.69;;;9.74;53.61
68793;BME280;55778;54.346;10.210;2023-04-26T12:33:03;101069.69;;;10.01;50.59
68793;BME280;55778;54.346;10.210;2023-04-26T12:35:29;101063.16;;;10.34;48.77
68793;BME280;55778;54.346;10.210;2023-04-26T12:37:55;101073.50;;;10.40;49.88
68793;BME280;55778;54.346;10.210;2023-04-26T12:40:24;101081.06;;;8.48;62.24
68793;BME280;55778;54.346;10.210;2023-04-26T12:42:50;101126.16;;;7.83;68.56
68793;BME280;55778;54.346;10.210;2023-04-26T12:45:17;101130.94;;;6.98;72.40
68793;BME280;55778;54.346;10.210;2023-04-26T12:47:45;101128.09;;;6.27;75.52
68793;BME280;55778;54.346;10.210;2023-04-26T12:50:12;101126.59;;;6.23;78.00
68793;BME280;55778;54.346;10.210;2023-04-26T12:52:41;101126.66;;;6.34;78.89
68793;BME280;55778;54.346;10.210;2023-04-26T12:55:07;101122.25;;;6.33;78.37
68793;BME280;55778;54.346;10.210;2023-04-26T12:57:35;101116.34;;;6.52;77.09
68793;BME280;55778;54.346;10.210;2023-04-26T13:00:01;101124.28;;;6.78;75.63
68793;BME280;55778;54.346;10.210;2023-04-26T13:02:26;101126.44;;;6.86;73.89
68793;BME280;55778;54.346;10.210;2023-04-26T13:04:51;101118.97;;;6.77;72.96
68793;BME280;55778;54.346;10.210;2023-04-26T13:07:17;101117.47;;;6.85;71.23
68793;BME280;55778;54.346;10.210;2023-04-26T13:09:42;101118.69;;;7.28;71.45